createdAt,value
2023-02-27T04:46:42.939Z,100545.69
2023-02-27T04:49:51.576Z,100547.09
2023-02-27T04:53:03.498Z,100552.88
2023-02-27T04:56:12.580Z,100559.06
2023-02-27T04:59:20.840Z,100562.91
2023-02-27T05:02:36.983Z,100557.44
2023-02-27T05:05:43.370Z,100556.03
2023-02-27T05:09:30.579Z,100570.56
2023-02-27T05:12:39.221Z,100571.44
2023-02-27T05:15:52.517Z,100579.25
2023-02-27T05:18:55.581Z,100595.47
2023-02-27T05:22:26.694Z,100593.25
2023-02-27T05:25:49.085Z,100595.50
2023-02-27T05:29:07.430Z,100603.97
2023-02-27T05:32:38.767Z,100602.16
2023-02-27T05:36:11.062Z,100602.06
2023-02-27T05:39:17.073Z,100608.47
2023-02-27T05:42:28.675Z,100602.97
2023-02-27T05:45:34.614Z,100614.66
2023-02-27T05:48:42.468Z,100618.72
2023-02-27T05:51:48.078Z,100619.72
2023-02-27T05:54:59.576Z,100623.69
2023-02-27T05:58:07.606Z,100627.94
2023-02-27T06:01:11.761Z,100631.88
2023-02-27T06:04:14.353Z,100632.09
2023-02-27T06:07:16.568Z,100649.88
2023-02-27T06:10:20.790Z,100649.28
2023-02-27T06:13:23.791Z,100653.87
2023-02-27T06:16:27.230Z,100654.25
2023-02-27T06:19:29.520Z,100668.47
2023-02-27T06:22:32.079Z,100673.94
2023-02-27T06:25:34.384Z,100679.16
2023-02-27T06:28:37.166Z,100688.13
2023-02-27T06:31:39.250Z,100694.09
2023-02-27T06:34:41.636Z,100695.84
2023-02-27T06:37:44.424Z,100709.91
2023-02-27T06:40:47.030Z,100713.66
2023-02-27T06:43:49.294Z,100712.72
2023-02-27T06:46:51.704Z,100724.16
2023-02-27T06:49:53.819Z,100727.03
2023-02-27T06:52:56.227Z,100736.62
2023-02-27T06:55:58.594Z,100727.91
2023-02-27T06:59:00.975Z,100738.63
2023-02-27T07:02:03.123Z,100738.25
2023-02-27T07:05:08.180Z,100741.78
2023-02-27T07:08:11.266Z,100748.09
2023-02-27T07:11:13.800Z,100748.87
2023-02-27T07:14:20.607Z,100753.03
2023-02-27T07:17:23.202Z,100756.97
2023-02-27T07:20:25.359Z,100755.63
2023-02-27T07:23:27.847Z,100766.69
2023-02-27T07:26:30.216Z,100763.59
2023-02-27T07:29:32.687Z,100770.38
2023-02-27T07:32:34.796Z,100771.28
2023-02-27T07:35:37.788Z,100773.56
2023-02-27T07:38:39.890Z,100783.75
2023-02-27T07:41:42.368Z,100782.13
2023-02-27T07:44:49.674Z,100787.13
2023-02-27T07:47:52.093Z,100784.47
2023-02-27T07:50:54.239Z,100789.87
2023-02-27T07:53:59.594Z,100788.78
2023-02-27T07:57:01.744Z,100793.13
2023-02-27T08:00:06.558Z,100793.69
2023-02-27T08:03:13.835Z,100797.94
2023-02-27T08:06:16.243Z,100801.09
2023-02-27T08:09:18.522Z,100796.16
2023-02-27T08:12:21.117Z,100797.00
2023-02-27T08:15:24.460Z,100810.34
2023-02-27T08:18:26.900Z,100809.75
2023-02-27T08:21:29.766Z,100823.03
2023-02-27T08:24:32.576Z,100815.47
2023-02-27T08:27:34.971Z,100825.34
2023-02-27T08:30:37.398Z,100825.00
2023-02-27T08:33:39.624Z,100830.13
2023-02-27T08:36:42.360Z,100844.75
2023-02-27T08:39:44.538Z,100847.56
2023-02-27T08:42:47.090Z,100841.16
2023-02-27T08:45:50.297Z,100853.66
2023-02-27T08:48:52.808Z,100855.66
2023-02-27T08:51:54.969Z,100857.31
2023-02-27T08:54:57.840Z,100854.50
2023-02-27T08:58:00.001Z,100857.97
2023-02-27T09:01:03.134Z,100856.75
2023-02-27T09:04:06.724Z,100861.69
2023-02-27T09:07:09.131Z,100859.50
2023-02-27T09:10:12.375Z,100859.84
2023-02-27T09:16:46.311Z,100867.72
2023-02-27T09:19:49.265Z,100873.69
2023-02-27T09:22:51.387Z,100877.41
2023-02-27T09:25:53.918Z,100883.78
2023-02-27T09:28:56.175Z,100880.38
2023-02-27T09:31:58.806Z,100881.09
2023-02-27T09:35:01.030Z,100882.50
2023-02-27T09:38:03.680Z,100882.97
2023-02-27T09:41:21.186Z,100870.72
2023-02-27T09:44:46.097Z,100872.16
2023-02-27T09:47:53.744Z,100876.25
2023-02-27T09:50:57.795Z,100882.41
2023-02-27T09:54:02.276Z,100888.44
2023-02-27T09:57:10.684Z,100897.19
2023-02-27T10:00:24.734Z,100890.13
2023-02-27T10:04:12.128Z,100894.75
2023-02-27T10:07:20.103Z,100888.88
2023-02-27T10:10:54.999Z,100889.16
2023-02-27T10:14:05.257Z,100888.56
2023-02-27T10:17:17.902Z,100894.87
2023-02-27T10:20:43.570Z,100886.06
2023-02-27T10:24:05.586Z,100892.16
2023-02-27T10:27:16.347Z,100884.59
2023-02-27T10:30:32.900Z,100889.91
2023-02-27T10:33:42.660Z,100892.81
2023-02-27T10:36:51.259Z,100890.31
2023-02-27T10:39:57.239Z,100886.38
2023-02-27T10:43:02.650Z,100885.00
2023-02-27T10:46:28.514Z,100884.06
2023-02-27T10:49:33.559Z,100884.37
2023-02-27T10:52:48.898Z,100884.53
2023-02-27T10:56:01.595Z,100882.22
2023-02-27T10:59:07.126Z,100884.22
2023-02-27T11:02:15.821Z,100880.03
2023-02-27T11:05:38.320Z,100873.81
2023-02-27T11:08:40.722Z,100878.38
2023-02-27T11:11:42.881Z,100884.94
2023-02-27T11:14:52.065Z,100883.25
2023-02-27T11:17:55.009Z,100883.28
2023-02-27T11:21:15.132Z,100886.22
2023-02-27T11:24:20.432Z,100896.09
2023-02-27T11:27:27.120Z,100889.16
2023-02-27T11:30:31.661Z,100890.53
2023-02-27T11:33:49.833Z,100894.84
2023-02-27T11:36:55.960Z,100888.16
2023-02-27T11:40:19.405Z,100895.16
2023-02-27T11:43:31.857Z,100896.81
2023-02-27T11:46:46.863Z,100896.47
2023-02-27T11:50:31.184Z,100900.56
2023-02-27T11:54:04.793Z,100894.87
2023-02-27T11:57:30.218Z,100900.88
2023-02-27T12:00:50.923Z,100886.97
2023-02-27T12:04:10.860Z,100883.06
2023-02-27T12:07:51.959Z,100879.69
2023-02-27T12:11:13.092Z,100887.66
2023-02-27T12:14:31.621Z,100884.28
2023-02-27T12:17:44.845Z,100889.78
2023-02-27T12:20:57.504Z,100883.84
2023-02-27T12:24:14.618Z,100892.38
2023-02-27T12:27:22.376Z,100899.28
2023-02-27T12:30:29.394Z,100897.66
2023-02-27T12:33:40.994Z,100903.06
2023-02-27T12:36:43.653Z,100904.78
2023-02-27T12:39:46.366Z,100909.19
2023-02-27T12:43:11.193Z,100914.87
2023-02-27T12:46:38.500Z,100912.44
2023-02-27T12:50:06.840Z,100911.22
2023-02-27T12:53:26.691Z,100915.09
2023-02-27T12:56:58.460Z,100911.22
2023-02-27T13:00:08.339Z,100917.47
2023-02-27T13:03:19.075Z,100919.56
2023-02-27T13:06:33.067Z,100910.38
2023-02-27T13:09:46.973Z,100922.03
2023-02-27T13:13:03.525Z,100917.06
2023-02-27T13:16:13.438Z,100921.09
2023-02-27T13:19:24.321Z,100925.63
2023-02-27T13:22:41.182Z,100920.56
2023-02-27T13:25:48.182Z,100926.69
2023-02-27T13:37:49.319Z,100934.75
2023-02-27T13:40:51.785Z,100925.97
2023-02-27T13:43:56.205Z,100926.97
2023-02-27T13:47:30.600Z,100927.66
2023-02-27T13:50:32.698Z,100937.47
2023-02-27T13:53:35.266Z,100936.97
2023-02-27T13:56:37.637Z,100934.81
2023-02-27T13:59:44.258Z,100939.75
2023-02-27T14:03:00.757Z,100935.25
2023-02-27T14:06:06.177Z,100931.34
2023-02-27T14:09:15.153Z,100930.28
2023-02-27T14:12:44.166Z,100928.13
2023-02-27T14:15:47.009Z,100925.91
2023-02-27T14:18:58.885Z,100928.59
2023-02-27T14:22:16.260Z,100921.44
2023-02-27T14:25:21.908Z,100926.59
2023-02-27T14:28:46.374Z,100918.09
2023-02-27T14:31:49.311Z,100924.84
2023-02-27T14:34:53.771Z,100929.31
2023-02-27T14:37:56.695Z,100926.13
2023-02-27T14:41:05.503Z,100936.53
2023-02-27T14:44:25.620Z,100932.78
2023-02-27T14:47:32.772Z,100928.78
2023-02-27T14:50:40.151Z,100931.22
2023-02-27T14:53:42.693Z,100934.41
2023-02-27T14:57:04.248Z,100943.94
2023-02-27T15:00:07.130Z,100934.19
2023-02-27T15:03:20.232Z,100936.09
2023-02-27T15:06:34.754Z,100942.94
2023-02-27T15:09:43.059Z,100940.41
2023-02-27T15:12:45.288Z,100949.78
2023-02-27T15:15:48.776Z,100959.75
2023-02-27T15:18:54.450Z,100960.09
2023-02-27T15:22:00.425Z,100966.09
2023-02-27T15:25:04.684Z,100972.94
2023-02-27T15:28:21.762Z,100977.69
2023-02-27T15:31:31.292Z,100973.84
2023-02-27T15:34:35.444Z,100990.41
2023-02-27T15:37:38.796Z,100989.94
2023-02-27T15:40:41.270Z,100995.53
2023-02-27T15:43:43.493Z,100998.75
2023-02-27T15:46:47.179Z,101002.31
2023-02-27T15:49:54.463Z,101009.06
2023-02-27T15:53:10.648Z,101020.16
2023-02-27T15:56:14.736Z,101018.34
2023-02-27T15:59:19.586Z,101031.78
2023-02-27T16:02:29.936Z,101027.34
2023-02-27T16:05:41.906Z,101026.31
2023-02-27T16:08:50.518Z,101032.72
2023-02-27T16:12:17.763Z,101039.56
2023-02-27T16:15:22.169Z,101039.97
2023-02-27T16:18:35.348Z,101039.47
2023-02-27T16:21:37.438Z,101048.84
2023-02-27T16:24:40.644Z,101057.91
2023-02-27T16:27:49.981Z,101057.78
2023-02-27T16:30:54.362Z,101061.81
2023-02-27T16:34:03.155Z,101066.94
2023-02-27T16:37:07.143Z,101076.44
